createdAt,value
2022-11-29T00:06:24.503Z,0
2022-11-29T00:16:01.701Z,0
2022-11-29T00:25:38.758Z,0
2022-11-29T00:35:15.831Z,0
2022-11-29T00:44:52.810Z,0
2022-11-29T00:54:30.049Z,0
2022-11-29T01:04:07.548Z,0
2022-11-29T01:13:44.012Z,0
2022-11-29T01:23:21.165Z,0
2022-11-29T01:32:57.939Z,0
2022-11-29T01:42:35.272Z,0
2022-11-29T01:52:12.367Z,0
2022-11-29T02:01:49.499Z,0
2022-11-29T02:11:26.715Z,0
2022-11-29T02:21:03.664Z,0
2022-11-29T02:30:40.950Z,0
2022-11-29T02:40:17.643Z,0
2022-11-29T02:49:54.443Z,0
2022-11-29T02:59:31.137Z,0
2022-11-29T03:09:08.401Z,0
2022-11-29T03:18:44.997Z,0
2022-11-29T03:28:21.659Z,0
2022-11-29T03:37:58.752Z,0
2022-11-29T03:47:36.740Z,0
2022-11-29T03:57:12.758Z,0
2022-11-29T04:06:49.699Z,0
2022-11-29T04:16:26.575Z,0
2022-11-29T04:26:03.032Z,0
2022-11-29T04:35:40.399Z,0
2022-11-29T04:45:17.407Z,0
2022-11-29T04:54:54.353Z,0
2022-11-29T05:04:30.977Z,0
2022-11-29T05:14:08.068Z,0
2022-11-29T05:33:22.874Z,0
2022-11-29T05:42:59.286Z,0
2022-11-29T05:52:36.062Z,0
2022-11-29T06:02:13.046Z,0
2022-11-29T06:11:50.066Z,0
2022-11-29T06:21:27.850Z,0
2022-11-29T06:31:04.205Z,1.67
2022-11-29T06:50:19.763Z,11.67
2022-11-29T06:59:55.951Z,15.83
2022-11-29T07:09:33.054Z,26.67
2022-11-29T07:19:12.041Z,48.33
2022-11-29T07:28:47.581Z,78.33
2022-11-29T07:38:25.044Z,114.17
2022-11-29T07:48:02.081Z,145.83
2022-11-29T07:57:39.204Z,176.67
2022-11-29T08:07:16.509Z,239.17
2022-11-29T08:16:53.572Z,304.17
2022-11-29T08:26:31.972Z,350.83
2022-11-29T08:45:45.739Z,390
2022-11-29T08:55:22.847Z,472.5
2022-11-29T09:05:01.118Z,539.17
2022-11-29T09:14:37.324Z,436.67
2022-11-29T09:24:14.453Z,384.17
2022-11-29T09:33:51.593Z,403.33
2022-11-29T09:43:29.618Z,414.17
2022-11-29T10:02:42.853Z,568.33
2022-11-29T10:12:20.215Z,618.33
2022-11-29T10:21:57.484Z,680
2022-11-29T10:31:35.157Z,726.67
2022-11-29T10:41:12.081Z,660.83
2022-11-29T10:50:49.338Z,665.83
2022-11-29T11:00:26.828Z,785.83
2022-11-29T11:10:03.982Z,788.33
2022-11-29T11:19:41.315Z,899.17
2022-11-29T11:29:18.620Z,886.67
2022-11-29T11:38:55.789Z,682.5
2022-11-29T11:48:31.725Z,809.17
2022-11-29T11:58:10.471Z,640
2022-11-29T12:17:22.668Z,474.17
2022-11-29T12:26:59.897Z,399.17
2022-11-29T12:36:36.467Z,480
2022-11-29T12:46:13.493Z,425.83
2022-11-29T12:55:50.190Z,351.67
2022-11-29T13:05:27.458Z,347.5
2022-11-29T13:15:04.511Z,348.33
2022-11-29T13:24:43.004Z,309.17
2022-11-29T13:34:18.668Z,275.83
2022-11-29T13:43:55.729Z,227.5
2022-11-29T13:53:32.515Z,222.5
2022-11-29T14:03:09.643Z,179.17
2022-11-29T14:12:46.317Z,131.67
2022-11-29T14:22:23.553Z,115
2022-11-29T14:32:00.442Z,80
2022-11-29T14:41:37.197Z,61.67
2022-11-29T14:51:13.871Z,54.17
2022-11-29T15:00:51.187Z,30.83
2022-11-29T15:10:28.149Z,14.17
2022-11-29T15:20:05.133Z,5.83
2022-11-29T15:29:41.808Z,2.5
2022-11-29T15:39:18.866Z,0
2022-11-29T15:48:55.954Z,0
2022-11-29T15:58:32.753Z,0
2022-11-29T16:08:09.479Z,0
2022-11-29T16:17:46.400Z,0
2022-11-29T16:27:23.288Z,0
2022-11-29T16:37:01.085Z,0
2022-11-29T16:46:36.910Z,0
2022-11-29T16:56:13.951Z,0
2022-11-29T17:05:50.623Z,0
2022-11-29T17:25:04.194Z,0
2022-11-29T17:34:41.217Z,0
2022-11-29T17:44:18.237Z,0
2022-11-29T17:53:54.917Z,0
2022-11-29T18:03:31.915Z,0
2022-11-29T18:13:08.869Z,0
2022-11-29T18:22:45.901Z,0
2022-11-29T18:32:22.151Z,0
2022-11-29T18:41:58.970Z,0
2022-11-29T18:51:35.789Z,0
2022-11-29T19:01:12.901Z,0
2022-11-29T19:10:49.735Z,0
2022-11-29T19:20:26.459Z,0
2022-11-29T19:30:03.394Z,0
2022-11-29T19:39:40.561Z,0
2022-11-29T19:49:17.613Z,0
2022-11-29T19:58:54.891Z,0
2022-11-29T20:08:31.788Z,0
2022-11-29T20:18:08.611Z,0
2022-11-29T20:27:45.179Z,0.83
2022-11-29T20:37:22.153Z,0
2022-11-29T20:46:59.075Z,0
2022-11-29T20:56:35.846Z,0
2022-11-29T21:06:12.785Z,0
2022-11-29T21:15:49.640Z,0
2022-11-29T21:25:26.099Z,0
2022-11-29T21:35:02.717Z,0
2022-11-29T21:44:39.674Z,0
2022-11-29T21:54:16.631Z,0
2022-11-29T22:03:53.714Z,0
2022-11-29T22:13:30.946Z,0
2022-11-29T22:23:08.059Z,0
2022-11-29T22:32:45.286Z,0
2022-11-29T22:42:22.482Z,0
2022-11-29T22:51:59.600Z,0
2022-11-29T23:01:36.622Z,0
2022-11-29T23:11:13.935Z,0
2022-11-29T23:20:50.951Z,0
2022-11-29T23:30:28.171Z,0
2022-11-29T23:40:05.064Z,0
2022-11-29T23:49:41.989Z,0
2022-11-29T23:59:19.015Z,0
